Current River (Missouri), Doniphan (07068000)

StateMissouriLatestHigh (5460 cfs)
RiverCurrent RiverRatingObservedEstimated
Updated2020-02-25 21:30 (39 minutes ago)Flood - The river is flooding. Obstacles can be treacherous or deadly. The river should be avoided at this stage for casual trips and definitely for the inexperienced. Trips should be attempted only with protective gear and equipment.Flood(none)7610
Discharge5460 cfs (median: 2630 cfs)High - The river is high and potentially dangerous, especially for the young and / or inexperienced. Normal stream obstacles are sometimes difficult to navigate. Extended distances can be attempted, but canoe travel may not be advisable.High(none)3249
Height2.76 feetGood - Conditions are ideal for a canoe or kayak. Boats typically will drag on fewer than one-quarter of riffles, if at all, and portages are unnecessary or rare. Normal float lengths can be attempted without a problem.Good(none)2314
TrendRising (rising over 24 hours)Low - River is low but can still be floated. Some riffles are okay but most come with significant dragging and might need a portage. Float lengths should be reduced to accommodate low flow, dragging, and portages.Low(none)1803
USGSExternal icon USGS Site (External icon Google Maps)Poor - River is too low to float comfortably. Most or all riffles will drag or must be portaged and some obstacles (such as slick shelf rock) cause undue problems. Avoid the river at this stage for casual paddling trips.Poor(none)1111

Trending Data

Plot Image

Trips for Current River (Missouri), Doniphan (07068000)

DateStartEndDistanceConditionDischargeHeightFishingDetails

A total of 0 rows are displayed.

Condition Descriptions

Fishing Conditions

Fish Species

Notes

Classic Trip List

The classic River Trips application is still available for use. It is updated with the new system using a data retrofit. It is no longer maintained. The original River Trips application is no longer updated (as of 1 Dec 2016) but can be checked for errors or for the condition of the data before it was converted to the new system.

Gauge Data Table

ObservationHeightDischargeMaximum
Discharge
Minimum
Discharge
Mean
Discharge
P05P10P20P25P50
(Median)
P75P80P90P95
2020-02-25 21:30 2.76 5460 64400 (1985) 1140 (1963) 3890 1240 1350 1750 1880 2630 3840 4400 6450 7570
2020-02-25 20:30 2.74 5430 64400 (1985) 1140 (1963) 3890 1240 1350 1750 1880 2630 3840 4400 6450 7570
2020-02-25 19:30 2.74 5430 64400 (1985) 1140 (1963) 3890 1240 1350 1750 1880 2630 3840 4400 6450 7570
2020-02-25 18:30 2.72 5400 64400 (1985) 1140 (1963) 3890 1240 1350 1750 1880 2630 3840 4400 6450 7570
2020-02-25 17:30 2.73 5420 64400 (1985) 1140 (1963) 3890 1240 1350 1750 1880 2630 3840 4400 6450 7570
2020-02-25 16:30 2.71 5390 64400 (1985) 1140 (1963) 3890 1240 1350 1750 1880 2630 3840 4400 6450 7570
2020-02-25 15:30 2.69 5360 64400 (1985) 1140 (1963) 3890 1240 1350 1750 1880 2630 3840 4400 6450 7570
2020-02-25 14:30 2.70 5370 64400 (1985) 1140 (1963) 3890 1240 1350 1750 1880 2630 3840 4400 6450 7570
2020-02-25 13:30 2.68 5340 64400 (1985) 1140 (1963) 3890 1240 1350 1750 1880 2630 3840 4400 6450 7570
2020-02-25 12:30 2.69 5360 64400 (1985) 1140 (1963) 3890 1240 1350 1750 1880 2630 3840 4400 6450 7570
2020-02-25 11:30 2.65 5290 64400 (1985) 1140 (1963) 3890 1240 1350 1750 1880 2630 3840 4400 6450 7570
2020-02-25 10:30 2.64 5280 64400 (1985) 1140 (1963) 3890 1240 1350 1750 1880 2630 3840 4400 6450 7570
2020-02-25 09:30 2.60 5220 64400 (1985) 1140 (1963) 3890 1240 1350 1750 1880 2630 3840 4400 6450 7570
2020-02-25 08:30 2.61 5230 64400 (1985) 1140 (1963) 3890 1240 1350 1750 1880 2630 3840 4400 6450 7570
2020-02-25 07:30 2.59 5200 64400 (1985) 1140 (1963) 3890 1240 1350 1750 1880 2630 3840 4400 6450 7570
2020-02-25 06:30 2.53 5110 64400 (1985) 1140 (1963) 3890 1240 1350 1750 1880 2630 3840 4400 6450 7570
2020-02-25 05:30 2.50 5070 64400 (1985) 1140 (1963) 3890 1240 1350 1750 1880 2630 3840 4400 6450 7570
2020-02-25 04:30 2.45 4990 64400 (1985) 1140 (1963) 3890 1240 1350 1750 1880 2630 3840 4400 6450 7570
2020-02-25 03:30 2.41 4930 64400 (1985) 1140 (1963) 3890 1240 1350 1750 1880 2630 3840 4400 6450 7570
2020-02-25 02:30 2.35 4840 64400 (1985) 1140 (1963) 3890 1240 1350 1750 1880 2630 3840 4400 6450 7570
2020-02-25 01:30 2.30 4770 64400 (1985) 1140 (1963) 3890 1240 1350 1750 1880 2630 3840 4400 6450 7570
2020-02-25 00:30 2.27 4730 64400 (1985) 1140 (1963) 3890 1240 1350 1750 1880 2630 3840 4400 6450 7570
2020-02-24 23:30 2.22 4650 35900 (1985) 1140 (1934) 3570 1250 1370 1670 1850 2600 3930 4230 5840 7980
2020-02-24 22:30 2.17 4580 35900 (1985) 1140 (1934) 3570 1250 1370 1670 1850 2600 3930 4230 5840 7980
2020-02-24 21:30 2.15 4550 35900 (1985) 1140 (1934) 3570 1250 1370 1670 1850 2600 3930 4230 5840 7980
2020-02-24 20:30 2.12 4510 35900 (1985) 1140 (1934) 3570 1250 1370 1670 1850 2600 3930 4230 5840 7980
2020-02-24 19:30 2.09 4470 35900 (1985) 1140 (1934) 3570 1250 1370 1670 1850 2600 3930 4230 5840 7980
2020-02-24 18:30 2.10 4480 35900 (1985) 1140 (1934) 3570 1250 1370 1670 1850 2600 3930 4230 5840 7980
2020-02-24 17:30 2.05 4410 35900 (1985) 1140 (1934) 3570 1250 1370 1670 1850 2600 3930 4230 5840 7980
2020-02-24 16:30 2.05 4410 35900 (1985) 1140 (1934) 3570 1250 1370 1670 1850 2600 3930 4230 5840 7980
2020-02-24 15:30 2.02 4370 35900 (1985) 1140 (1934) 3570 1250 1370 1670 1850 2600 3930 4230 5840 7980
2020-02-24 14:30 2.01 4350 35900 (1985) 1140 (1934) 3570 1250 1370 1670 1850 2600 3930 4230 5840 7980
2020-02-24 13:30 1.99 4320 35900 (1985) 1140 (1934) 3570 1250 1370 1670 1850 2600 3930 4230 5840 7980
2020-02-24 12:30 1.97 4300 35900 (1985) 1140 (1934) 3570 1250 1370 1670 1850 2600 3930 4230 5840 7980
2020-02-24 11:30 1.96 4280 35900 (1985) 1140 (1934) 3570 1250 1370 1670 1850 2600 3930 4230 5840 7980
2020-02-24 10:30 1.99 4320 35900 (1985) 1140 (1934) 3570 1250 1370 1670 1850 2600 3930 4230 5840 7980
2020-02-24 09:30 1.96 4280 35900 (1985) 1140 (1934) 3570 1250 1370 1670 1850 2600 3930 4230 5840 7980
2020-02-24 08:30 1.97 4300 35900 (1985) 1140 (1934) 3570 1250 1370 1670 1850 2600 3930 4230 5840 7980
2020-02-24 07:30 1.95 4270 35900 (1985) 1140 (1934) 3570 1250 1370 1670 1850 2600 3930 4230 5840 7980
2020-02-24 06:30 1.93 4240 35900 (1985) 1140 (1934) 3570 1250 1370 1670 1850 2600 3930 4230 5840 7980
2020-02-24 05:30 1.95 4270 35900 (1985) 1140 (1934) 3570 1250 1370 1670 1850 2600 3930 4230 5840 7980
2020-02-24 04:30 1.92 4230 35900 (1985) 1140 (1934) 3570 1250 1370 1670 1850 2600 3930 4230 5840 7980
2020-02-24 03:30 1.88 4170 35900 (1985) 1140 (1934) 3570 1250 1370 1670 1850 2600 3930 4230 5840 7980
2020-02-24 02:30 1.87 4160 35900 (1985) 1140 (1934) 3570 1250 1370 1670 1850 2600 3930 4230 5840 7980
2020-02-24 01:30 1.85 4130 35900 (1985) 1140 (1934) 3570 1250 1370 1670 1850 2600 3930 4230 5840 7980
2020-02-24 00:30 1.83 4100 35900 (1985) 1140 (1934) 3570 1250 1370 1670 1850 2600 3930 4230 5840 7980
2020-02-23 23:30 1.84 4120 14000 (1945) 1140 (1934) 3290 1210 1350 1680 1880 2660 3600 4480 6340 9030
2020-02-23 22:30 1.83 4100 14000 (1945) 1140 (1934) 3290 1210 1350 1680 1880 2660 3600 4480 6340 9030
2020-02-23 21:30 1.84 4120 14000 (1945) 1140 (1934) 3290 1210 1350 1680 1880 2660 3600 4480 6340 9030
2020-02-23 20:30 1.83 4100 14000 (1945) 1140 (1934) 3290 1210 1350 1680 1880 2660 3600 4480 6340 9030
2020-02-23 19:30 1.84 4120 14000 (1945) 1140 (1934) 3290 1210 1350 1680 1880 2660 3600 4480 6340 9030
2020-02-23 18:30 1.87 4160 14000 (1945) 1140 (1934) 3290 1210 1350 1680 1880 2660 3600 4480 6340 9030
2020-02-23 17:30 1.83 4100 14000 (1945) 1140 (1934) 3290 1210 1350 1680 1880 2660 3600 4480 6340 9030
2020-02-23 16:30 1.84 4120 14000 (1945) 1140 (1934) 3290 1210 1350 1680 1880 2660 3600 4480 6340 9030
2020-02-23 15:30 1.85 4130 14000 (1945) 1140 (1934) 3290 1210 1350 1680 1880 2660 3600 4480 6340 9030
2020-02-23 14:30 1.84 4120 14000 (1945) 1140 (1934) 3290 1210 1350 1680 1880 2660 3600 4480 6340 9030
2020-02-23 13:30 1.87 4160 14000 (1945) 1140 (1934) 3290 1210 1350 1680 1880 2660 3600 4480 6340 9030
2020-02-23 12:30 1.88 4170 14000 (1945) 1140 (1934) 3290 1210 1350 1680 1880 2660 3600 4480 6340 9030
2020-02-23 11:30 1.86 4140 14000 (1945) 1140 (1934) 3290 1210 1350 1680 1880 2660 3600 4480 6340 9030
2020-02-23 10:30 1.85 4130 14000 (1945) 1140 (1934) 3290 1210 1350 1680 1880 2660 3600 4480 6340 9030
2020-02-23 09:30 1.87 4160 14000 (1945) 1140 (1934) 3290 1210 1350 1680 1880 2660 3600 4480 6340 9030
2020-02-23 08:30 1.87 4160 14000 (1945) 1140 (1934) 3290 1210 1350 1680 1880 2660 3600 4480 6340 9030
2020-02-23 07:30 1.88 4170 14000 (1945) 1140 (1934) 3290 1210 1350 1680 1880 2660 3600 4480 6340 9030
2020-02-23 06:30 1.87 4160 14000 (1945) 1140 (1934) 3290 1210 1350 1680 1880 2660 3600 4480 6340 9030
2020-02-23 05:30 1.87 4160 14000 (1945) 1140 (1934) 3290 1210 1350 1680 1880 2660 3600 4480 6340 9030
2020-02-23 04:30 1.87 4160 14000 (1945) 1140 (1934) 3290 1210 1350 1680 1880 2660 3600 4480 6340 9030
2020-02-23 03:30 1.86 4140 14000 (1945) 1140 (1934) 3290 1210 1350 1680 1880 2660 3600 4480 6340 9030
2020-02-23 02:30 1.91 4210 14000 (1945) 1140 (1934) 3290 1210 1350 1680 1880 2660 3600 4480 6340 9030
2020-02-23 01:30 1.90 4200 14000 (1945) 1140 (1934) 3290 1210 1350 1680 1880 2660 3600 4480 6340 9030
2020-02-23 00:30 1.91 4210 14000 (1945) 1140 (1934) 3290 1210 1350 1680 1880 2660 3600 4480 6340 9030
2020-02-22 23:30 1.93 4240 17700 (1951) 1040 (1977) 3240 1210 1360 1700 1840 2720 3300 4110 5650 8490
2020-02-22 22:30 1.92 4230 17700 (1951) 1040 (1977) 3240 1210 1360 1700 1840 2720 3300 4110 5650 8490
2020-02-22 21:30 1.91 4210 17700 (1951) 1040 (1977) 3240 1210 1360 1700 1840 2720 3300 4110 5650 8490
2020-02-22 20:30 1.92 4230 17700 (1951) 1040 (1977) 3240 1210 1360 1700 1840 2720 3300 4110 5650 8490
2020-02-22 19:30 1.90 4200 17700 (1951) 1040 (1977) 3240 1210 1360 1700 1840 2720 3300 4110 5650 8490
2020-02-22 18:30 1.92 4230 17700 (1951) 1040 (1977) 3240 1210 1360 1700 1840 2720 3300 4110 5650 8490
2020-02-22 17:30 1.92 4230 17700 (1951) 1040 (1977) 3240 1210 1360 1700 1840 2720 3300 4110 5650 8490
2020-02-22 16:30 1.93 4240 17700 (1951) 1040 (1977) 3240 1210 1360 1700 1840 2720 3300 4110 5650 8490
2020-02-22 15:30 1.96 4280 17700 (1951) 1040 (1977) 3240 1210 1360 1700 1840 2720 3300 4110 5650 8490
2020-02-22 14:30 1.97 4300 17700 (1951) 1040 (1977) 3240 1210 1360 1700 1840 2720 3300 4110 5650 8490
2020-02-22 13:30 1.96 4280 17700 (1951) 1040 (1977) 3240 1210 1360 1700 1840 2720 3300 4110 5650 8490
2020-02-22 12:30 1.97 4300 17700 (1951) 1040 (1977) 3240 1210 1360 1700 1840 2720 3300 4110 5650 8490
2020-02-22 11:30 1.99 4320 17700 (1951) 1040 (1977) 3240 1210 1360 1700 1840 2720 3300 4110 5650 8490
2020-02-22 10:30 1.95 4270 17700 (1951) 1040 (1977) 3240 1210 1360 1700 1840 2720 3300 4110 5650 8490
2020-02-22 09:30 1.98 4310 17700 (1951) 1040 (1977) 3240 1210 1360 1700 1840 2720 3300 4110 5650 8490
2020-02-22 08:30 2.00 4340 17700 (1951) 1040 (1977) 3240 1210 1360 1700 1840 2720 3300 4110 5650 8490
2020-02-22 07:30 1.99 4320 17700 (1951) 1040 (1977) 3240 1210 1360 1700 1840 2720 3300 4110 5650 8490
2020-02-22 06:30 2.00 4340 17700 (1951) 1040 (1977) 3240 1210 1360 1700 1840 2720 3300 4110 5650 8490
2020-02-22 05:30 2.01 4350 17700 (1951) 1040 (1977) 3240 1210 1360 1700 1840 2720 3300 4110 5650 8490
2020-02-22 04:30 2.01 4350 17700 (1951) 1040 (1977) 3240 1210 1360 1700 1840 2720 3300 4110 5650 8490
2020-02-22 03:30 2.03 4380 17700 (1951) 1040 (1977) 3240 1210 1360 1700 1840 2720 3300 4110 5650 8490
2020-02-22 02:30 2.04 4390 17700 (1951) 1040 (1977) 3240 1210 1360 1700 1840 2720 3300 4110 5650 8490
2020-02-22 01:30 2.03 4380 17700 (1951) 1040 (1977) 3240 1210 1360 1700 1840 2720 3300 4110 5650 8490
2020-02-22 00:30 2.04 4390 17700 (1951) 1040 (1977) 3240 1210 1360 1700 1840 2720 3300 4110 5650 8490
2020-02-21 23:30 2.03 4380 18600 (1951) 1050 (1977) 3150 1270 1380 1720 1830 2640 3460 3630 5570 7120
2020-02-21 22:30 2.06 4420 18600 (1951) 1050 (1977) 3150 1270 1380 1720 1830 2640 3460 3630 5570 7120
2020-02-21 21:30 2.06 4420 18600 (1951) 1050 (1977) 3150 1270 1380 1720 1830 2640 3460 3630 5570 7120
2020-02-21 20:30 2.08 4450 18600 (1951) 1050 (1977) 3150 1270 1380 1720 1830 2640 3460 3630 5570 7120
2020-02-21 19:30 2.08 4450 18600 (1951) 1050 (1977) 3150 1270 1380 1720 1830 2640 3460 3630 5570 7120
2020-02-21 18:30 2.08 4450 18600 (1951) 1050 (1977) 3150 1270 1380 1720 1830 2640 3460 3630 5570 7120
2020-02-21 17:30 2.09 4470 18600 (1951) 1050 (1977) 3150 1270 1380 1720 1830 2640 3460 3630 5570 7120
2020-02-21 16:30 2.11 4490 18600 (1951) 1050 (1977) 3150 1270 1380 1720 1830 2640 3460 3630 5570 7120
2020-02-21 15:30 2.11 4490 18600 (1951) 1050 (1977) 3150 1270 1380 1720 1830 2640 3460 3630 5570 7120
2020-02-21 14:30 2.12 4510 18600 (1951) 1050 (1977) 3150 1270 1380 1720 1830 2640 3460 3630 5570 7120
2020-02-21 13:30 2.13 4520 18600 (1951) 1050 (1977) 3150 1270 1380 1720 1830 2640 3460 3630 5570 7120
2020-02-21 12:30 2.14 4540 18600 (1951) 1050 (1977) 3150 1270 1380 1720 1830 2640 3460 3630 5570 7120
2020-02-21 11:30 2.14 4540 18600 (1951) 1050 (1977) 3150 1270 1380 1720 1830 2640 3460 3630 5570 7120
2020-02-21 10:30 2.16 4570 18600 (1951) 1050 (1977) 3150 1270 1380 1720 1830 2640 3460 3630 5570 7120
2020-02-21 09:30 2.17 4580 18600 (1951) 1050 (1977) 3150 1270 1380 1720 1830 2640 3460 3630 5570 7120
2020-02-21 08:30 2.16 4570 18600 (1951) 1050 (1977) 3150 1270 1380 1720 1830 2640 3460 3630 5570 7120
2020-02-21 07:30 2.19 4610 18600 (1951) 1050 (1977) 3150 1270 1380 1720 1830 2640 3460 3630 5570 7120
2020-02-21 06:30 2.17 4580 18600 (1951) 1050 (1977) 3150 1270 1380 1720 1830 2640 3460 3630 5570 7120
2020-02-21 05:30 2.21 4640 18600 (1951) 1050 (1977) 3150 1270 1380 1720 1830 2640 3460 3630 5570 7120
2020-02-21 04:30 2.22 4650 18600 (1951) 1050 (1977) 3150 1270 1380 1720 1830 2640 3460 3630 5570 7120
2020-02-21 03:30 2.23 4670 18600 (1951) 1050 (1977) 3150 1270 1380 1720 1830 2640 3460 3630 5570 7120
2020-02-21 02:30 2.22 4650 18600 (1951) 1050 (1977) 3150 1270 1380 1720 1830 2640 3460 3630 5570 7120
2020-02-21 01:30 2.23 4670 18600 (1951) 1050 (1977) 3150 1270 1380 1720 1830 2640 3460 3630 5570 7120
2020-02-21 00:30 2.24 4680 18600 (1951) 1050 (1977) 3150 1270 1380 1720 1830 2640 3460 3630 5570 7120
2020-02-20 23:30 2.26 4710 25300 (1938) 1070 (1934) 3180 1280 1390 1640 1760 2430 3500 3630 4620 7510
2020-02-20 22:30 2.26 4710 25300 (1938) 1070 (1934) 3180 1280 1390 1640 1760 2430 3500 3630 4620 7510
2020-02-20 21:30 2.29 4750 25300 (1938) 1070 (1934) 3180 1280 1390 1640 1760 2430 3500 3630 4620 7510
2020-02-20 20:30 2.30 4770 25300 (1938) 1070 (1934) 3180 1280 1390 1640 1760 2430 3500 3630 4620 7510
2020-02-20 19:30 2.30 4770 25300 (1938) 1070 (1934) 3180 1280 1390 1640 1760 2430 3500 3630 4620 7510
2020-02-20 18:30 2.31 4780 25300 (1938) 1070 (1934) 3180 1280 1390 1640 1760 2430 3500 3630 4620 7510
2020-02-20 17:30 2.32 4800 25300 (1938) 1070 (1934) 3180 1280 1390 1640 1760 2430 3500 3630 4620 7510
2020-02-20 16:30 2.34 4830 25300 (1938) 1070 (1934) 3180 1280 1390 1640 1760 2430 3500 3630 4620 7510
2020-02-20 15:30 2.34 4830 25300 (1938) 1070 (1934) 3180 1280 1390 1640 1760 2430 3500 3630 4620 7510
2020-02-20 14:30 2.35 4840 25300 (1938) 1070 (1934) 3180 1280 1390 1640 1760 2430 3500 3630 4620 7510
2020-02-20 13:30 2.36 4860 25300 (1938) 1070 (1934) 3180 1280 1390 1640 1760 2430 3500 3630 4620 7510
2020-02-20 12:30 2.38 4890 25300 (1938) 1070 (1934) 3180 1280 1390 1640 1760 2430 3500 3630 4620 7510
2020-02-20 11:30 2.38 4890 25300 (1938) 1070 (1934) 3180 1280 1390 1640 1760 2430 3500 3630 4620 7510
2020-02-20 10:30 2.40 4920 25300 (1938) 1070 (1934) 3180 1280 1390 1640 1760 2430 3500 3630 4620 7510
2020-02-20 09:30 2.41 4930 25300 (1938) 1070 (1934) 3180 1280 1390 1640 1760 2430 3500 3630 4620 7510
2020-02-20 08:30 2.42 4950 25300 (1938) 1070 (1934) 3180 1280 1390 1640 1760 2430 3500 3630 4620 7510
2020-02-20 07:30 2.42 4950 25300 (1938) 1070 (1934) 3180 1280 1390 1640 1760 2430 3500 3630 4620 7510
2020-02-20 06:30 2.44 4980 25300 (1938) 1070 (1934) 3180 1280 1390 1640 1760 2430 3500 3630 4620 7510
2020-02-20 05:30 2.45 4990 25300 (1938) 1070 (1934) 3180 1280 1390 1640 1760 2430 3500 3630 4620 7510
2020-02-20 04:30 2.46 5010 25300 (1938) 1070 (1934) 3180 1280 1390 1640 1760 2430 3500 3630 4620 7510
2020-02-20 03:30 2.47 5020 25300 (1938) 1070 (1934) 3180 1280 1390 1640 1760 2430 3500 3630 4620 7510
2020-02-20 02:30 2.49 5050 25300 (1938) 1070 (1934) 3180 1280 1390 1640 1760 2430 3500 3630 4620 7510
2020-02-20 01:30 2.49 5050 25300 (1938) 1070 (1934) 3180 1280 1390 1640 1760 2430 3500 3630 4620 7510
2020-02-20 00:30 2.50 5070 25300 (1938) 1070 (1934) 3180 1280 1390 1640 1760 2430 3500 3630 4620 7510
2020-02-19 23:30 2.54 5130 32900 (1938) 1070 (1934) 3320 1210 1360 1660 1720 2400 3480 3760 5410 7710
2020-02-19 22:30 2.54 5130 32900 (1938) 1070 (1934) 3320 1210 1360 1660 1720 2400 3480 3760 5410 7710
2020-02-19 21:30 2.56 5160 32900 (1938) 1070 (1934) 3320 1210 1360 1660 1720 2400 3480 3760 5410 7710
2020-02-19 20:30 2.57 5170 32900 (1938) 1070 (1934) 3320 1210 1360 1660 1720 2400 3480 3760 5410 7710
2020-02-19 19:30 2.56 5160 32900 (1938) 1070 (1934) 3320 1210 1360 1660 1720 2400 3480 3760 5410 7710
2020-02-19 18:30 2.59 5200 32900 (1938) 1070 (1934) 3320 1210 1360 1660 1720 2400 3480 3760 5410 7710
2020-02-19 17:30 2.60 5220 32900 (1938) 1070 (1934) 3320 1210 1360 1660 1720 2400 3480 3760 5410 7710
2020-02-19 16:30 2.61 5230 32900 (1938) 1070 (1934) 3320 1210 1360 1660 1720 2400 3480 3760 5410 7710
2020-02-19 15:30 2.62 5250 32900 (1938) 1070 (1934) 3320 1210 1360 1660 1720 2400 3480 3760 5410 7710
2020-02-19 14:30 2.64 5280 32900 (1938) 1070 (1934) 3320 1210 1360 1660 1720 2400 3480 3760 5410 7710
2020-02-19 13:30 2.66 5310 32900 (1938) 1070 (1934) 3320 1210 1360 1660 1720 2400 3480 3760 5410 7710
2020-02-19 12:30 2.66 5310 32900 (1938) 1070 (1934) 3320 1210 1360 1660 1720 2400 3480 3760 5410 7710
2020-02-19 11:30 2.67 5320 32900 (1938) 1070 (1934) 3320 1210 1360 1660 1720 2400 3480 3760 5410 7710
2020-02-19 10:30 2.68 5340 32900 (1938) 1070 (1934) 3320 1210 1360 1660 1720 2400 3480 3760 5410 7710
2020-02-19 09:30 2.71 5390 32900 (1938) 1070 (1934) 3320 1210 1360 1660 1720 2400 3480 3760 5410 7710
2020-02-19 08:30 2.72 5400 32900 (1938) 1070 (1934) 3320 1210 1360 1660 1720 2400 3480 3760 5410 7710
2020-02-19 07:30 2.72 5400 32900 (1938) 1070 (1934) 3320 1210 1360 1660 1720 2400 3480 3760 5410 7710
2020-02-19 06:30 2.75 5450 32900 (1938) 1070 (1934) 3320 1210 1360 1660 1720 2400 3480 3760 5410 7710
2020-02-19 05:30 2.74 5430 32900 (1938) 1070 (1934) 3320 1210 1360 1660 1720 2400 3480 3760 5410 7710
2020-02-19 04:30 2.75 5450 32900 (1938) 1070 (1934) 3320 1210 1360 1660 1720 2400 3480 3760 5410 7710
2020-02-19 03:30 2.77 5480 32900 (1938) 1070 (1934) 3320 1210 1360 1660 1720 2400 3480 3760 5410 7710
2020-02-19 02:30 2.78 5490 32900 (1938) 1070 (1934) 3320 1210 1360 1660 1720 2400 3480 3760 5410 7710
2020-02-19 01:30 2.78 5490 32900 (1938) 1070 (1934) 3320 1210 1360 1660 1720 2400 3480 3760 5410 7710
2020-02-19 00:30 2.80 5530 32900 (1938) 1070 (1934) 3320 1210 1360 1660 1720 2400 3480 3760 5410 7710
2020-02-18 23:30 2.82 5560 16200 (1938) 1070 (1934) 3190 1200 1350 1680 1750 2460 3570 4060 5040 8570
2020-02-18 22:30 2.85 5600 16200 (1938) 1070 (1934) 3190 1200 1350 1680 1750 2460 3570 4060 5040 8570
2020-02-18 21:30 2.87 5640 16200 (1938) 1070 (1934) 3190 1200 1350 1680 1750 2460 3570 4060 5040 8570
2020-02-18 20:30 2.86 5620 16200 (1938) 1070 (1934) 3190 1200 1350 1680 1750 2460 3570 4060 5040 8570
2020-02-18 19:30 2.87 5640 16200 (1938) 1070 (1934) 3190 1200 1350 1680 1750 2460 3570 4060 5040 8570
2020-02-18 18:30 2.89 5670 16200 (1938) 1070 (1934) 3190 1200 1350 1680 1750 2460 3570 4060 5040 8570
2020-02-18 17:30 2.91 5700 16200 (1938) 1070 (1934) 3190 1200 1350 1680 1750 2460 3570 4060 5040 8570
2020-02-18 16:30 2.93 5730 16200 (1938) 1070 (1934) 3190 1200 1350 1680 1750 2460 3570 4060 5040 8570
2020-02-18 15:30 2.94 5750 16200 (1938) 1070 (1934) 3190 1200 1350 1680 1750 2460 3570 4060 5040 8570
2020-02-18 14:30 2.94 5750 16200 (1938) 1070 (1934) 3190 1200 1350 1680 1750 2460 3570 4060 5040 8570
2020-02-18 13:30 2.95 5760 16200 (1938) 1070 (1934) 3190 1200 1350 1680 1750 2460 3570 4060 5040 8570
2020-02-18 12:30 2.96 5780 16200 (1938) 1070 (1934) 3190 1200 1350 1680 1750 2460 3570 4060 5040 8570
2020-02-18 11:30 2.97 5790 16200 (1938) 1070 (1934) 3190 1200 1350 1680 1750 2460 3570 4060 5040 8570
2020-02-18 10:30 3.00 5840 16200 (1938) 1070 (1934) 3190 1200 1350 1680 1750 2460 3570 4060 5040 8570
2020-02-18 09:30 2.99 5830 16200 (1938) 1070 (1934) 3190 1200 1350 1680 1750 2460 3570 4060 5040 8570
2020-02-18 08:30 3.00 5840 16200 (1938) 1070 (1934) 3190 1200 1350 1680 1750 2460 3570 4060 5040 8570
2020-02-18 07:30 3.02 5870 16200 (1938) 1070 (1934) 3190 1200 1350 1680 1750 2460 3570 4060 5040 8570
2020-02-18 06:30 3.02 5870 16200 (1938) 1070 (1934) 3190 1200 1350 1680 1750 2460 3570 4060 5040 8570
2020-02-18 05:30 3.04 5910 16200 (1938) 1070 (1934) 3190 1200 1350 1680 1750 2460 3570 4060 5040 8570
2020-02-18 04:30 3.06 5940 16200 (1938) 1070 (1934) 3190 1200 1350 1680 1750 2460 3570 4060 5040 8570
2020-02-18 03:30 3.06 5940 16200 (1938) 1070 (1934) 3190 1200 1350 1680 1750 2460 3570 4060 5040 8570
2020-02-18 02:30 3.06 5940 16200 (1938) 1070 (1934) 3190 1200 1350 1680 1750 2460 3570 4060 5040 8570
2020-02-18 01:30 3.09 5990 16200 (1938) 1070 (1934) 3190 1200 1350 1680 1750 2460 3570 4060 5040 8570
2020-02-18 00:30 3.06 5940 16200 (1938) 1070 (1934) 3190 1200 1350 1680 1750 2460 3570 4060 5040 8570

A total of 190 rows are displayed for years 1922 through 2019.